createdAt,value
2023-03-11T00:00:31.145Z,97968.69
2023-03-11T00:03:33.496Z,97972.91
2023-03-11T00:06:35.988Z,97972.91
2023-03-11T00:09:38.353Z,97966.09
2023-03-11T00:12:40.487Z,97968.97
2023-03-11T00:15:45.124Z,97962.06
2023-03-11T00:18:50.850Z,97948.31
2023-03-11T00:21:53.295Z,97936.53
2023-03-11T00:24:55.377Z,97951.81
2023-03-11T00:27:57.764Z,97965.63
2023-03-11T00:31:00.217Z,97961.69
2023-03-11T00:34:02.416Z,97969.19
2023-03-11T00:37:04.632Z,97965.37
2023-03-11T00:40:11.101Z,97972.19
2023-03-11T00:43:14.056Z,97961.53
2023-03-11T00:46:16.250Z,97956.03
2023-03-11T00:49:18.668Z,97953.53
2023-03-11T00:52:20.728Z,97961.16
2023-03-11T00:55:26.131Z,97962.00
2023-03-11T00:58:30.848Z,97963.44
2023-03-11T01:01:33.447Z,97956.28
2023-03-11T01:04:35.686Z,97961.00
2023-03-11T01:07:37.890Z,97958.84
2023-03-11T01:10:40.013Z,97967.19
2023-03-11T01:13:42.572Z,97980.94
2023-03-11T01:16:44.802Z,97970.56
2023-03-11T01:19:46.976Z,97966.53
2023-03-11T01:22:49.471Z,97958.97
2023-03-11T01:25:51.469Z,97969.75
2023-03-11T01:28:53.616Z,97969.84
2023-03-11T01:31:55.717Z,97966.37
2023-03-11T01:34:57.835Z,97969.59
2023-03-11T01:38:00.278Z,97977.03
2023-03-11T01:41:02.355Z,97968.09
2023-03-11T01:44:05.283Z,97968.91
2023-03-11T01:47:33.010Z,97983.69
2023-03-11T01:50:40.453Z,97993.12
2023-03-11T01:53:44.122Z,98013.75
2023-03-11T01:56:48.343Z,98016.88
2023-03-11T01:59:53.583Z,98025.81
2023-03-11T02:02:59.842Z,98021.63
2023-03-11T02:06:06.275Z,98039.66
2023-03-11T02:09:08.734Z,98039.88
2023-03-11T02:12:13.793Z,98037.59
2023-03-11T02:15:16.014Z,98039.00
2023-03-11T02:18:22.373Z,98040.44
2023-03-11T02:21:34.552Z,98048.53
2023-03-11T02:24:57.573Z,98037.41
2023-03-11T02:28:01.333Z,98036.91
2023-03-11T02:31:03.477Z,98024.47
2023-03-11T02:34:10.514Z,98006.06
2023-03-11T02:37:15.257Z,97997.19
2023-03-11T02:40:23.290Z,97978.53
2023-03-11T02:43:36.967Z,97961.34
2023-03-11T02:46:41.879Z,97951.66
2023-03-11T02:49:44.422Z,97948.06
2023-03-11T02:52:49.200Z,97950.56
2023-03-11T02:55:51.214Z,97946.97
2023-03-11T02:58:53.587Z,97946.97
2023-03-11T03:01:56.208Z,97955.94
2023-03-11T03:04:58.315Z,97962.75
2023-03-11T03:08:00.343Z,97968.00
2023-03-11T03:11:03.450Z,97971.59
2023-03-11T03:14:05.771Z,97978.41
2023-03-11T03:17:07.876Z,97971.19
2023-03-11T03:20:12.741Z,97978.00
2023-03-11T03:23:14.874Z,97971.09
2023-03-11T03:26:16.926Z,97976.22
2023-03-11T03:29:19.187Z,97978.84
2023-03-11T03:32:21.447Z,97986.00
2023-03-11T03:35:23.690Z,97994.75
2023-03-11T03:38:25.709Z,98007.91
2023-03-11T03:41:27.880Z,98021.75
2023-03-11T03:44:30.777Z,98016.50
2023-03-11T03:47:34.240Z,98021.75
2023-03-11T03:50:36.343Z,98023.69
2023-03-11T03:53:39.100Z,98032.53
2023-03-11T03:56:41.134Z,98039.75
2023-03-11T03:59:43.460Z,98036.66
2023-03-11T04:02:45.561Z,98039.69
2023-03-11T04:05:47.655Z,98044.78
2023-03-11T04:08:51.395Z,98043.13
2023-03-11T04:11:53.481Z,98045.44
2023-03-11T04:14:55.567Z,98057.63
2023-03-11T04:17:57.833Z,98057.87
2023-03-11T04:20:59.891Z,98073.78
2023-03-11T04:24:01.982Z,98077.50
2023-03-11T04:27:04.047Z,98087.44
2023-03-11T04:30:07.548Z,98082.19
2023-03-11T04:33:09.574Z,98086.59
2023-03-11T04:36:13.070Z,98083.25
2023-03-11T04:39:15.434Z,98083.75
2023-03-11T04:42:19.254Z,98081.94
2023-03-11T04:45:21.460Z,98085.78
2023-03-11T04:48:24.864Z,98083.16
2023-03-11T04:51:26.930Z,98075.53
2023-03-11T04:54:29.435Z,98080.91
2023-03-11T04:57:31.479Z,98085.31
2023-03-11T05:00:33.630Z,98079.22
2023-03-11T05:03:35.723Z,98074.13
2023-03-11T05:06:37.761Z,98073.16
2023-03-11T05:09:39.928Z,98072.66
2023-03-11T05:12:42.219Z,98071.16
2023-03-11T05:15:46.464Z,98068.41
2023-03-11T05:18:48.653Z,98078.47
2023-03-11T05:21:50.808Z,98107.12
2023-03-11T05:24:52.831Z,98120.50
2023-03-11T05:27:54.988Z,98122.66
2023-03-11T05:30:57.108Z,98126.97
2023-03-11T05:33:59.183Z,98138.44
2023-03-11T05:37:03.190Z,98135.09
2023-03-11T05:40:07.846Z,98139.00
2023-03-11T05:43:10.085Z,98142.25
2023-03-11T05:46:12.682Z,98142.59
2023-03-11T05:49:14.871Z,98146.31
2023-03-11T05:52:17.187Z,98143.41
2023-03-11T05:55:19.256Z,98154.38
2023-03-11T05:58:21.343Z,98165.09
2023-03-11T06:01:23.402Z,98163.44
2023-03-11T06:04:25.574Z,98166.16
2023-03-11T06:07:27.704Z,98193.50
2023-03-11T06:10:30.811Z,98197.03
2023-03-11T06:13:33.585Z,98206.06
2023-03-11T06:16:35.696Z,98220.38
2023-03-11T06:19:37.745Z,98232.66
2023-03-11T06:22:40.415Z,98224.87
2023-03-11T06:25:42.473Z,98235.84
2023-03-11T06:28:46.117Z,98233.22
2023-03-11T06:31:48.734Z,98246.84
2023-03-11T06:34:52.164Z,98241.37
2023-03-11T06:37:54.190Z,98253.09
2023-03-11T06:41:03.974Z,98260.44
2023-03-11T06:44:06.057Z,98271.78
2023-03-11T06:47:08.126Z,98273.06
2023-03-11T06:50:11.168Z,98277.03
2023-03-11T06:53:13.353Z,98290.38
2023-03-11T06:56:15.431Z,98297.88
2023-03-11T06:59:17.451Z,98299.69
2023-03-11T07:02:20.316Z,98300.13
2023-03-11T07:05:22.406Z,98318.53
2023-03-11T07:08:24.970Z,98325.09
2023-03-11T07:11:28.228Z,98331.78
2023-03-11T07:14:30.171Z,98336.62
2023-03-11T07:17:32.657Z,98340.88
2023-03-11T07:20:34.831Z,98339.50
2023-03-11T07:23:37.072Z,98350.88
2023-03-11T07:26:39.181Z,98351.69
2023-03-11T07:29:41.285Z,98354.53
2023-03-11T07:32:43.435Z,98363.91
2023-03-11T07:35:46.708Z,98368.53
2023-03-11T07:38:54.809Z,98366.03
2023-03-11T07:41:56.958Z,98358.59
2023-03-11T07:44:59.287Z,98367.09
2023-03-11T07:48:01.305Z,98367.34
2023-03-11T07:51:11.432Z,98375.34
2023-03-11T07:54:14.044Z,98380.97
2023-03-11T07:57:17.389Z,98379.28
2023-03-11T08:00:20.872Z,98383.59
2023-03-11T08:03:25.883Z,98384.31
2023-03-11T08:06:31.424Z,98386.47
2023-03-11T08:09:35.464Z,98384.34
2023-03-11T08:12:37.533Z,98382.75
2023-03-11T08:15:39.753Z,98388.69
2023-03-11T08:18:42.694Z,98389.56
2023-03-11T08:21:45.089Z,98392.34
2023-03-11T08:24:51.953Z,98395.97
2023-03-11T08:27:53.967Z,98394.00
2023-03-11T08:30:56.083Z,98399.50
2023-03-11T08:34:04.168Z,98392.66
2023-03-11T08:37:06.974Z,98392.91
2023-03-11T08:40:10.822Z,98400.16
2023-03-11T08:43:14.188Z,98398.25
2023-03-11T08:46:24.865Z,98393.53
2023-03-11T08:49:27.043Z,98391.22
2023-03-11T08:52:29.319Z,98403.62
2023-03-11T08:55:31.377Z,98417.41
2023-03-11T08:58:33.520Z,98423.91
2023-03-11T09:01:35.705Z,98423.19
2023-03-11T09:04:37.736Z,98426.88
2023-03-11T09:07:40.052Z,98424.94
2023-03-11T09:10:42.157Z,98419.84
2023-03-11T09:13:44.756Z,98422.53
2023-03-11T09:16:46.795Z,98422.47
2023-03-11T09:19:49.037Z,98427.41
2023-03-11T09:22:54.417Z,98439.81
2023-03-11T09:25:56.737Z,98447.75
2023-03-11T09:28:58.956Z,98439.75
2023-03-11T09:32:00.969Z,98448.69
2023-03-11T09:35:03.256Z,98449.47
2023-03-11T09:38:05.578Z,98445.81
2023-03-11T09:41:27.488Z,98449.13
2023-03-11T09:44:54.644Z,98453.87
2023-03-11T09:48:12.808Z,98466.56
2023-03-11T09:51:26.011Z,98465.00
2023-03-11T09:54:30.813Z,98469.19
2023-03-11T09:57:37.233Z,98457.19
2023-03-11T10:00:40.297Z,98467.84
2023-03-11T10:03:43.960Z,98477.00
2023-03-11T10:06:48.114Z,98477.53
2023-03-11T10:09:56.846Z,98464.75
2023-03-11T10:13:16.431Z,98472.69
2023-03-11T10:16:41.430Z,98484.03
2023-03-11T10:19:49.740Z,98486.09
2023-03-11T10:23:16.526Z,98485.72
2023-03-11T10:26:18.542Z,98494.59
2023-03-11T10:29:38.962Z,98498.44
2023-03-11T10:33:14.113Z,98500.94
2023-03-11T10:36:26.609Z,98501.75
2023-03-11T10:39:29.091Z,98517.38
2023-03-11T10:42:32.657Z,98518.62
2023-03-11T10:45:41.626Z,98512.75
2023-03-11T10:48:43.934Z,98504.56
2023-03-11T10:51:48.198Z,98511.44
2023-03-11T10:55:01.429Z,98524.06
2023-03-11T10:58:12.430Z,98528.84
2023-03-11T11:01:17.156Z,98535.06
2023-03-11T11:04:31.180Z,98548.56
2023-03-11T11:07:37.501Z,98544.69
2023-03-11T11:10:52.957Z,98552.69
2023-03-11T11:14:00.475Z,98547.88
2023-03-11T11:17:02.681Z,98550.41
2023-03-11T11:20:13.235Z,98559.28
2023-03-11T11:23:27.040Z,98559.63
2023-03-11T11:26:29.094Z,98567.91
2023-03-11T11:29:31.725Z,98569.16
2023-03-11T11:32:33.866Z,98576.44
2023-03-11T11:35:54.290Z,98564.34
2023-03-11T11:38:59.181Z,98559.03
2023-03-11T11:42:01.921Z,98560.25
2023-03-11T11:45:13.939Z,98567.06
2023-03-11T11:48:41.266Z,98557.06
2023-03-11T11:51:59.358Z,98557.72
2023-03-11T11:55:21.306Z,98561.88
2023-03-11T11:58:23.605Z,98559.81
2023-03-11T12:01:25.650Z,98564.34
2023-03-11T12:04:37.943Z,98553.87
2023-03-11T12:07:52.227Z,98556.47
2023-03-11T12:11:00.413Z,98561.91
2023-03-11T12:14:37.173Z,98566.59
2023-03-11T12:17:43.983Z,98563.41
2023-03-11T12:20:53.849Z,98557.00
2023-03-11T12:24:02.025Z,98566.84
2023-03-11T12:27:15.661Z,98564.88
2023-03-11T12:30:23.822Z,98582.13
2023-03-11T12:33:37.488Z,98570.88
2023-03-11T12:36:44.014Z,98570.28
2023-03-11T12:39:46.145Z,98583.03
2023-03-11T12:42:48.145Z,98583.59
2023-03-11T12:45:52.315Z,98582.78
2023-03-11T12:49:15.092Z,98583.41
2023-03-11T12:52:18.464Z,98582.19
2023-03-11T12:55:25.346Z,98587.53
2023-03-11T12:59:05.280Z,98599.13
2023-03-11T13:02:10.355Z,98603.00
2023-03-11T13:05:25.179Z,98607.59
2023-03-11T13:08:37.664Z,98604.56
2023-03-11T13:11:43.343Z,98608.59
2023-03-11T13:14:45.691Z,98619.03
2023-03-11T13:17:59.006Z,98617.38
2023-03-11T13:21:02.366Z,98620.38
2023-03-11T13:24:22.997Z,98621.66
2023-03-11T13:27:38.488Z,98623.09
2023-03-11T13:30:51.914Z,98628.75
2023-03-11T13:34:21.460Z,98631.88
2023-03-11T13:38:05.189Z,98652.75
2023-03-11T13:41:34.796Z,98663.09
2023-03-11T13:44:40.363Z,98673.78
2023-03-11T13:47:46.868Z,98682.94
2023-03-11T13:51:27.545Z,98687.56
2023-03-11T13:54:37.583Z,98694.62
2023-03-11T13:57:39.977Z,98722.53
2023-03-11T14:00:50.148Z,98716.38
2023-03-11T14:03:52.225Z,98726.59
2023-03-11T14:06:54.665Z,98746.94
2023-03-11T14:10:12.218Z,98744.69
2023-03-11T14:13:17.913Z,98747.88
2023-03-11T14:16:35.370Z,98745.09
2023-03-11T14:19:37.690Z,98751.59
2023-03-11T14:22:39.986Z,98743.78
2023-03-11T14:25:42.055Z,98750.56
2023-03-11T14:28:51.388Z,98746.38
2023-03-11T14:31:53.732Z,98765.09
2023-03-11T14:34:57.199Z,98761.19
2023-03-11T14:38:00.114Z,98768.47
2023-03-11T14:41:14.808Z,98759.91
2023-03-11T14:44:18.067Z,98761.41
2023-03-11T14:47:25.264Z,98774.75
2023-03-11T14:50:32.067Z,98784.88
2023-03-11T14:53:34.802Z,98798.69
2023-03-11T14:56:42.007Z,98796.31
2023-03-11T14:59:48.289Z,98801.19
2023-03-11T15:03:12.724Z,98821.91
2023-03-11T15:06:17.581Z,98821.56
2023-03-11T15:09:23.082Z,98822.50
2023-03-11T15:12:35.223Z,98822.59
2023-03-11T15:15:38.333Z,98827.81
2023-03-11T15:18:43.132Z,98826.63
2023-03-11T15:21:47.371Z,98829.16
2023-03-11T15:24:58.246Z,98842.09
2023-03-11T15:28:14.651Z,98840.31
2023-03-11T15:31:22.806Z,98847.03
2023-03-11T15:34:33.442Z,98843.44
2023-03-11T15:37:35.752Z,98857.44
2023-03-11T15:40:45.680Z,98863.22
2023-03-11T15:43:49.380Z,98873.06
2023-03-11T15:46:52.129Z,98863.34
2023-03-11T15:49:54.523Z,98878.56
2023-03-11T15:52:59.013Z,98888.16
2023-03-11T15:56:10.690Z,98878.06
2023-03-11T15:59:16.251Z,98880.47
2023-03-11T16:02:24.557Z,98898.66
2023-03-11T16:05:26.945Z,98906.72
2023-03-11T16:08:29.160Z,98910.25
2023-03-11T16:11:32.934Z,98916.53
2023-03-11T16:14:35.673Z,98923.09
2023-03-11T16:17:49.340Z,98920.63
2023-03-11T16:20:55.794Z,98934.37
2023-03-11T16:23:59.008Z,98953.50
2023-03-11T16:27:01.191Z,98949.75
2023-03-11T16:30:04.294Z,98961.53
2023-03-11T16:33:07.539Z,98958.91
2023-03-11T16:36:11.570Z,98973.72
2023-03-11T16:39:15.354Z,98978.53
2023-03-11T16:42:24.155Z,98986.63
2023-03-11T16:45:27.857Z,98999.50
2023-03-11T16:48:30.077Z,99002.50
2023-03-11T16:51:32.956Z,99002.44
2023-03-11T16:54:35.452Z,99013.97
2023-03-11T16:57:41.226Z,99011.59
2023-03-11T17:00:44.036Z,99021.78
2023-03-11T17:03:48.829Z,99027.28
2023-03-11T17:06:51.091Z,99047.34
2023-03-11T17:09:53.506Z,99056.81
2023-03-11T17:12:56.161Z,99058.28
2023-03-11T17:16:02.970Z,99076.13
2023-03-11T17:19:05.730Z,99081.75
2023-03-11T17:22:08.727Z,99078.50
2023-03-11T17:25:13.010Z,99089.16
2023-03-11T17:28:17.231Z,99096.88
2023-03-11T17:31:19.804Z,99105.94
2023-03-11T17:34:23.431Z,99120.88
2023-03-11T17:37:28.190Z,99120.94
2023-03-11T17:40:32.231Z,99128.75
2023-03-11T17:43:35.377Z,99136.41
2023-03-11T17:46:39.580Z,99141.75
2023-03-11T17:49:42.553Z,99135.16
2023-03-11T17:52:47.817Z,99139.81
2023-03-11T17:55:50.992Z,99157.91
2023-03-11T17:58:54.328Z,99156.59
2023-03-11T18:01:57.266Z,99171.66
2023-03-11T18:05:00.458Z,99179.22
2023-03-11T18:08:03.422Z,99188.94
2023-03-11T18:11:12.302Z,99198.88
2023-03-11T18:14:15.420Z,99200.50
2023-03-11T18:17:19.070Z,99197.72
2023-03-11T18:20:22.435Z,99210.75
2023-03-11T18:23:26.030Z,99219.72
2023-03-11T18:26:30.339Z,99217.44
2023-03-11T18:29:33.154Z,99220.47
2023-03-11T18:32:38.714Z,99234.34
2023-03-11T18:35:43.228Z,99238.66
2023-03-11T18:38:46.883Z,99244.50
2023-03-11T18:41:49.985Z,99235.62
2023-03-11T18:44:52.799Z,99255.75
2023-03-11T18:47:55.479Z,99257.06
2023-03-11T18:50:58.546Z,99254.94
2023-03-11T18:54:02.585Z,99266.50
2023-03-11T18:57:05.261Z,99267.59
2023-03-11T19:00:10.491Z,99270.59
2023-03-11T19:03:13.988Z,99275.41
2023-03-11T19:06:17.222Z,99284.28
2023-03-11T19:09:20.097Z,99281.81
2023-03-11T19:12:22.576Z,99296.12
2023-03-11T19:15:25.190Z,99292.06
2023-03-11T19:18:28.349Z,99298.38
2023-03-11T19:21:30.966Z,99303.03
2023-03-11T19:24:36.372Z,99307.69
2023-03-11T19:27:40.789Z,99319.16
2023-03-11T19:30:43.741Z,99330.47
2023-03-11T19:33:51.939Z,99323.06
2023-03-11T19:36:54.881Z,99324.06
2023-03-11T19:39:58.108Z,99338.75
2023-03-11T19:43:01.077Z,99334.69
2023-03-11T19:46:08.633Z,99336.44
2023-03-11T19:49:12.684Z,99329.06
2023-03-11T19:52:15.627Z,99347.91
2023-03-11T19:55:18.516Z,99354.06
2023-03-11T19:58:23.352Z,99361.16
2023-03-11T20:01:28.825Z,99366.44
2023-03-11T20:04:31.489Z,99369.16
2023-03-11T20:07:35.188Z,99363.81
2023-03-11T20:10:42.037Z,99366.59
2023-03-11T20:13:45.713Z,99373.81
2023-03-11T20:16:49.772Z,99380.75
2023-03-11T20:19:53.131Z,99378.41
2023-03-11T20:22:57.629Z,99375.16
2023-03-11T20:26:00.240Z,99389.38
2023-03-11T20:29:06.594Z,99379.81
2023-03-11T20:32:10.795Z,99380.06
2023-03-11T20:35:15.768Z,99389.88
2023-03-11T20:38:18.542Z,99400.19
2023-03-11T20:41:23.908Z,99395.09
2023-03-11T20:44:26.727Z,99403.03
2023-03-11T20:47:29.419Z,99403.22
2023-03-11T20:50:32.390Z,99413.66
2023-03-11T20:53:34.886Z,99405.91
2023-03-11T20:56:37.448Z,99412.06
2023-03-11T20:59:40.501Z,99412.25
2023-03-11T21:02:44.404Z,99424.34
2023-03-11T21:05:46.829Z,99428.75
2023-03-11T21:08:50.450Z,99439.25
2023-03-11T21:11:52.899Z,99439.19
2023-03-11T21:14:55.687Z,99445.31
2023-03-11T21:17:58.187Z,99457.50
2023-03-11T21:21:01.558Z,99455.03
2023-03-11T21:24:04.427Z,99456.94
2023-03-11T21:27:07.272Z,99471.03
2023-03-11T21:30:11.096Z,99465.88
2023-03-11T21:33:14.202Z,99469.59
2023-03-11T21:36:17.879Z,99480.28
2023-03-11T21:39:21.890Z,99475.87
2023-03-11T21:42:24.520Z,99475.22
2023-03-11T21:45:26.886Z,99481.50
2023-03-11T21:48:29.113Z,99484.13
2023-03-11T21:51:31.412Z,99484.59
2023-03-11T21:54:33.475Z,99488.34
2023-03-11T21:57:35.541Z,99488.69
2023-03-11T22:00:37.945Z,99491.22
2023-03-11T22:03:41.170Z,99489.59
2023-03-11T22:06:43.348Z,99495.84
2023-03-11T22:09:45.688Z,99509.03
2023-03-11T22:12:48.044Z,99504.81
2023-03-11T22:15:50.428Z,99508.31
2023-03-11T22:18:53.933Z,99513.78
2023-03-11T22:21:56.374Z,99518.34
2023-03-11T22:24:58.503Z,99521.97
2023-03-11T22:28:00.678Z,99518.84
2023-03-11T22:31:14.006Z,99517.28
2023-03-11T22:34:16.120Z,99517.75
2023-03-11T22:37:19.972Z,99532.38
2023-03-11T22:40:22.129Z,99535.09
2023-03-11T22:43:24.395Z,99544.00
2023-03-11T22:46:26.729Z,99545.13
2023-03-11T22:49:28.936Z,99552.25
2023-03-11T22:52:31.175Z,99561.13
2023-03-11T22:55:33.473Z,99559.50
2023-03-11T22:58:35.672Z,99558.84
2023-03-11T23:01:37.849Z,99556.56
2023-03-11T23:04:39.836Z,99568.94
2023-03-11T23:07:42.591Z,99563.94
2023-03-11T23:10:47.910Z,99572.75
2023-03-11T23:13:50.770Z,99568.41
2023-03-11T23:16:52.789Z,99565.66
2023-03-11T23:19:54.955Z,99569.09
2023-03-11T23:22:57.023Z,99570.06
2023-03-11T23:25:59.172Z,99576.19
2023-03-11T23:29:01.748Z,99581.44
2023-03-11T23:32:03.879Z,99589.50
2023-03-11T23:35:06.953Z,99588.75
2023-03-11T23:38:09.480Z,99594.81
2023-03-11T23:41:14.945Z,99547.12
2023-03-11T23:44:17.181Z,99597.59
2023-03-11T23:47:19.438Z,99597.59
2023-03-11T23:50:21.465Z,99595.19
2023-03-11T23:53:25.581Z,99597.97
2023-03-11T23:56:27.711Z,99596.31
2023-03-11T23:59:29.748Z,99606.00
